sensor_id;sensor_type;location;lat;lon;timestamp;P1;durP1;ratioP1;P2;durP2;ratioP2
9880;SDS011;4979;51.014;6.678;2023-06-14T00:01:52;11.27;;;5.15;;
9880;SDS011;4979;51.014;6.678;2023-06-14T00:04:18;11.30;;;5.13;;
9880;SDS011;4979;51.014;6.678;2023-06-14T00:06:45;6.03;;;5.00;;
9880;SDS011;4979;51.014;6.678;2023-06-14T00:09:11;7.72;;;4.57;;
9880;SDS011;4979;51.014;6.678;2023-06-14T00:11:42;5.05;;;4.32;;
9880;SDS011;4979;51.014;6.678;2023-06-14T00:14:08;6.22;;;4.95;;
9880;SDS011;4979;51.014;6.678;2023-06-14T00:16:34;6.40;;;4.90;;
9880;SDS011;4979;51.014;6.678;2023-06-14T00:19:00;5.63;;;4.95;;
9880;SDS011;4979;51.014;6.678;2023-06-14T00:21:28;6.07;;;4.97;;
9880;SDS011;4979;51.014;6.678;2023-06-14T00:23:54;6.75;;;4.45;;
9880;SDS011;4979;51.014;6.678;2023-06-14T00:26:20;8.18;;;4.60;;
9880;SDS011;4979;51.014;6.678;2023-06-14T00:28:46;6.05;;;5.00;;
9880;SDS011;4979;51.014;6.678;2023-06-14T00:31:12;5.90;;;4.63;;
9880;SDS011;4979;51.014;6.678;2023-06-14T00:33:37;5.10;;;4.45;;
9880;SDS011;4979;51.014;6.678;2023-06-14T00:36:03;8.10;;;4.70;;
9880;SDS011;4979;51.014;6.678;2023-06-14T00:38:28;7.68;;;5.00;;
9880;SDS011;4979;51.014;6.678;2023-06-14T00:40:54;5.88;;;5.25;;
9880;SDS011;4979;51.014;6.678;2023-06-14T00:43:19;6.38;;;4.93;;
9880;SDS011;4979;51.014;6.678;2023-06-14T00:45:45;6.15;;;4.88;;
9880;SDS011;4979;51.014;6.678;2023-06-14T00:48:11;5.50;;;4.30;;
9880;SDS011;4979;51.014;6.678;2023-06-14T00:50:38;5.97;;;4.65;;
9880;SDS011;4979;51.014;6.678;2023-06-14T00:53:06;9.48;;;4.82;;
9880;SDS011;4979;51.014;6.678;2023-06-14T00:55:32;5.30;;;4.80;;
9880;SDS011;4979;51.014;6.678;2023-06-14T00:57:58;8.48;;;4.70;;
9880;SDS011;4979;51.014;6.678;2023-06-14T01:00:23;7.25;;;5.13;;
9880;SDS011;4979;51.014;6.678;2023-06-14T01:02:49;6.15;;;4.43;;
9880;SDS011;4979;51.014;6.678;2023-06-14T01:05:15;7.45;;;5.20;;
9880;SDS011;4979;51.014;6.678;2023-06-14T01:07:55;5.53;;;5.00;;
9880;SDS011;4979;51.014;6.678;2023-06-14T01:13:29;7.40;;;5.25;;
9880;SDS011;4979;51.014;6.678;2023-06-14T01:15:59;6.13;;;4.72;;
9880;SDS011;4979;51.014;6.678;2023-06-14T01:18:26;7.00;;;4.70;;
9880;SDS011;4979;51.014;6.678;2023-06-14T01:20:54;7.22;;;4.95;;
9880;SDS011;4979;51.014;6.678;2023-06-14T01:23:20;9.30;;;5.60;;
9880;SDS011;4979;51.014;6.678;2023-06-14T01:25:47;6.88;;;4.75;;
9880;SDS011;4979;51.014;6.678;2023-06-14T01:28:17;7.60;;;5.40;;
9880;SDS011;4979;51.014;6.678;2023-06-14T01:30:46;7.65;;;4.85;;
9880;SDS011;4979;51.014;6.678;2023-06-14T01:33:17;5.38;;;4.65;;
9880;SDS011;4979;51.014;6.678;2023-06-14T01:35:49;6.40;;;5.20;;
9880;SDS011;4979;51.014;6.678;2023-06-14T01:38:17;5.70;;;5.10;;
9880;SDS011;4979;51.014;6.678;2023-06-14T01:40:44;7.43;;;5.20;;
9880;SDS011;4979;51.014;6.678;2023-06-14T01:43:12;6.90;;;4.78;;
9880;SDS011;4979;51.014;6.678;2023-06-14T01:45:40;7.07;;;4.53;;
9880;SDS011;4979;51.014;6.678;2023-06-14T01:48:07;7.47;;;5.10;;
9880;SDS011;4979;51.014;6.678;2023-06-14T01:50:33;5.50;;;4.55;;
9880;SDS011;4979;51.014;6.678;2023-06-14T01:52:59;6.50;;;5.35;;
9880;SDS011;4979;51.014;6.678;2023-06-14T01:55:25;8.20;;;5.72;;
9880;SDS011;4979;51.014;6.678;2023-06-14T01:57:51;7.00;;;4.97;;
9880;SDS011;4979;51.014;6.678;2023-06-14T02:00:17;6.70;;;5.10;;
9880;SDS011;4979;51.014;6.678;2023-06-14T02:02:43;9.07;;;5.20;;
9880;SDS011;4979;51.014;6.678;2023-06-14T02:05:09;10.68;;;5.25;;
9880;SDS011;4979;51.014;6.678;2023-06-14T02:07:35;5.68;;;5.10;;
9880;SDS011;4979;51.014;6.678;2023-06-14T02:10:01;7.22;;;5.10;;
9880;SDS011;4979;51.014;6.678;2023-06-14T02:12:27;7.13;;;4.30;;
9880;SDS011;4979;51.014;6.678;2023-06-14T02:14:53;8.00;;;5.28;;
9880;SDS011;4979;51.014;6.678;2023-06-14T02:17:19;6.45;;;4.70;;
9880;SDS011;4979;51.014;6.678;2023-06-14T02:19:45;6.63;;;5.10;;
9880;SDS011;4979;51.014;6.678;2023-06-14T02:22:11;5.28;;;4.78;;
9880;SDS011;4979;51.014;6.678;2023-06-14T02:24:36;5.57;;;5.05;;
9880;SDS011;4979;51.014;6.678;2023-06-14T02:27:02;10.45;;;5.15;;
9880;SDS011;4979;51.014;6.678;2023-06-14T02:29:28;7.35;;;4.75;;
9880;SDS011;4979;51.014;6.678;2023-06-14T02:31:54;6.22;;;4.95;;
9880;SDS011;4979;51.014;6.678;2023-06-14T02:34:19;5.43;;;4.93;;
9880;SDS011;4979;51.014;6.678;2023-06-14T02:36:46;8.02;;;5.45;;
9880;SDS011;4979;51.014;6.678;2023-06-14T02:39:13;9.88;;;5.13;;
9880;SDS011;4979;51.014;6.678;2023-06-14T02:41:38;6.50;;;5.13;;
9880;SDS011;4979;51.014;6.678;2023-06-14T02:44:05;6.93;;;5.30;;
9880;SDS011;4979;51.014;6.678;2023-06-14T02:46:31;11.88;;;5.18;;
9880;SDS011;4979;51.014;6.678;2023-06-14T02:48:56;11.25;;;5.55;;
9880;SDS011;4979;51.014;6.678;2023-06-14T02:51:22;9.35;;;5.60;;
9880;SDS011;4979;51.014;6.678;2023-06-14T02:53:47;5.75;;;4.82;;
9880;SDS011;4979;51.014;6.678;2023-06-14T02:56:13;10.52;;;5.95;;
9880;SDS011;4979;51.014;6.678;2023-06-14T02:58:39;7.03;;;5.70;;
9880;SDS011;4979;51.014;6.678;2023-06-14T03:01:05;6.53;;;5.60;;
9880;SDS011;4979;51.014;6.678;2023-06-14T03:03:32;7.55;;;5.68;;
9880;SDS011;4979;51.014;6.678;2023-06-14T03:05:58;7.18;;;5.55;;
9880;SDS011;4979;51.014;6.678;2023-06-14T03:08:26;9.50;;;6.20;;
9880;SDS011;4979;51.014;6.678;2023-06-14T03:10:53;7.18;;;4.97;;
9880;SDS011;4979;51.014;6.678;2023-06-14T03:13:21;7.55;;;4.70;;
9880;SDS011;4979;51.014;6.678;2023-06-14T03:15:47;5.85;;;5.15;;
9880;SDS011;4979;51.014;6.678;2023-06-14T03:18:15;9.57;;;5.47;;
9880;SDS011;4979;51.014;6.678;2023-06-14T03:20:41;9.88;;;5.43;;
9880;SDS011;4979;51.014;6.678;2023-06-14T03:23:07;6.78;;;6.03;;
9880;SDS011;4979;51.014;6.678;2023-06-14T03:25:33;7.90;;;5.85;;
9880;SDS011;4979;51.014;6.678;2023-06-14T03:28:00;8.82;;;5.28;;
9880;SDS011;4979;51.014;6.678;2023-06-14T03:30:27;8.32;;;5.68;;
9880;SDS011;4979;51.014;6.678;2023-06-14T03:32:53;6.93;;;5.35;;
9880;SDS011;4979;51.014;6.678;2023-06-14T03:35:20;8.07;;;5.63;;
9880;SDS011;4979;51.014;6.678;2023-06-14T03:37:46;10.13;;;5.90;;
9880;SDS011;4979;51.014;6.678;2023-06-14T03:40:13;14.50;;;5.57;;
9880;SDS011;4979;51.014;6.678;2023-06-14T03:42:40;6.43;;;5.78;;
9880;SDS011;4979;51.014;6.678;2023-06-14T03:45:06;9.40;;;5.65;;
9880;SDS011;4979;51.014;6.678;2023-06-14T03:47:32;5.97;;;5.00;;
9880;SDS011;4979;51.014;6.678;2023-06-14T03:49:57;9.57;;;5.72;;
9880;SDS011;4979;51.014;6.678;2023-06-14T03:52:23;12.20;;;5.93;;
9880;SDS011;4979;51.014;6.678;2023-06-14T03:54:49;9.55;;;5.18;;
9880;SDS011;4979;51.014;6.678;2023-06-14T03:57:16;6.80;;;5.50;;
9880;SDS011;4979;51.014;6.678;2023-06-14T03:59:42;10.02;;;5.85;;
9880;SDS011;4979;51.014;6.678;2023-06-14T04:02:07;9.20;;;5.55;;
9880;SDS011;4979;51.014;6.678;2023-06-14T04:04:34;7.60;;;5.47;;
9880;SDS011;4979;51.014;6.678;2023-06-14T04:07:00;6.90;;;5.53;;
9880;SDS011;4979;51.014;6.678;2023-06-14T04:09:28;8.98;;;6.15;;
9880;SDS011;4979;51.014;6.678;2023-06-14T04:11:54;7.35;;;5.18;;
9880;SDS011;4979;51.014;6.678;2023-06-14T04:14:21;11.02;;;5.82;;
9880;SDS011;4979;51.014;6.678;2023-06-14T04:16:47;7.20;;;4.88;;
9880;SDS011;4979;51.014;6.678;2023-06-14T04:19:13;7.63;;;6.05;;
9880;SDS011;4979;51.014;6.678;2023-06-14T04:21:39;6.88;;;5.90;;
9880;SDS011;4979;51.014;6.678;2023-06-14T04:24:05;10.98;;;6.10;;
9880;SDS011;4979;51.014;6.678;2023-06-14T04:26:31;7.10;;;5.68;;
9880;SDS011;4979;51.014;6.678;2023-06-14T04:28:59;7.28;;;5.93;;
9880;SDS011;4979;51.014;6.678;2023-06-14T04:31:30;9.65;;;6.32;;
9880;SDS011;4979;51.014;6.678;2023-06-14T04:34:02;9.63;;;6.40;;
9880;SDS011;4979;51.014;6.678;2023-06-14T04:36:31;10.40;;;6.03;;
9880;SDS011;4979;51.014;6.678;2023-06-14T04:38:59;8.55;;;5.68;;
9880;SDS011;4979;51.014;6.678;2023-06-14T04:41:25;13.63;;;5.88;;
9880;SDS011;4979;51.014;6.678;2023-06-14T04:43:55;10.27;;;5.90;;
9880;SDS011;4979;51.014;6.678;2023-06-14T04:46:26;8.80;;;6.07;;
9880;SDS011;4979;51.014;6.678;2023-06-14T04:48:57;11.15;;;6.47;;
9880;SDS011;4979;51.014;6.678;2023-06-14T04:51:23;9.27;;;6.05;;
9880;SDS011;4979;51.014;6.678;2023-06-14T04:53:54;9.75;;;6.47;;
9880;SDS011;4979;51.014;6.678;2023-06-14T04:56:23;10.20;;;6.20;;
9880;SDS011;4979;51.014;6.678;2023-06-14T04:58:50;12.15;;;6.70;;
9880;SDS011;4979;51.014;6.678;2023-06-14T05:01:15;7.80;;;6.18;;
9880;SDS011;4979;51.014;6.678;2023-06-14T05:03:41;8.43;;;6.13;;
9880;SDS011;4979;51.014;6.678;2023-06-14T05:06:10;9.90;;;6.07;;
9880;SDS011;4979;51.014;6.678;2023-06-14T05:08:36;9.63;;;5.93;;
9880;SDS011;4979;51.014;6.678;2023-06-14T05:11:02;7.45;;;6.43;;
9880;SDS011;4979;51.014;6.678;2023-06-14T05:13:28;10.38;;;6.40;;
9880;SDS011;4979;51.014;6.678;2023-06-14T05:15:53;11.25;;;7.47;;
9880;SDS011;4979;51.014;6.678;2023-06-14T05:18:19;7.30;;;4.85;;
9880;SDS011;4979;51.014;6.678;2023-06-14T05:20:45;10.85;;;5.55;;
9880;SDS011;4979;51.014;6.678;2023-06-14T05:23:11;8.55;;;5.70;;
9880;SDS011;4979;51.014;6.678;2023-06-14T05:25:40;7.95;;;6.53;;
9880;SDS011;4979;51.014;6.678;2023-06-14T05:28:08;14.32;;;8.85;;
9880;SDS011;4979;51.014;6.678;2023-06-14T05:30:34;7.40;;;5.28;;
9880;SDS011;4979;51.014;6.678;2023-06-14T05:33:00;10.18;;;5.65;;
9880;SDS011;4979;51.014;6.678;2023-06-14T05:35:26;12.43;;;6.60;;
9880;SDS011;4979;51.014;6.678;2023-06-14T05:37:52;5.75;;;4.40;;
9880;SDS011;4979;51.014;6.678;2023-06-14T05:40:18;10.75;;;7.50;;
9880;SDS011;4979;51.014;6.678;2023-06-14T05:42:44;8.20;;;5.03;;
9880;SDS011;4979;51.014;6.678;2023-06-14T05:45:10;6.75;;;4.50;;
9880;SDS011;4979;51.014;6.678;2023-06-14T05:47:36;5.22;;;4.35;;
9880;SDS011;4979;51.014;6.678;2023-06-14T05:50:01;7.55;;;5.00;;
9880;SDS011;4979;51.014;6.678;2023-06-14T05:52:27;7.30;;;4.80;;
9880;SDS011;4979;51.014;6.678;2023-06-14T05:54:53;5.60;;;4.50;;
9880;SDS011;4979;51.014;6.678;2023-06-14T05:57:18;12.95;;;4.63;;
9880;SDS011;4979;51.014;6.678;2023-06-14T05:59:44;5.43;;;4.25;;
9880;SDS011;4979;51.014;6.678;2023-06-14T06:02:10;9.85;;;5.43;;
9880;SDS011;4979;51.014;6.678;2023-06-14T06:04:35;6.50;;;4.10;;
9880;SDS011;4979;51.014;6.678;2023-06-14T06:07:01;5.38;;;4.38;;
9880;SDS011;4979;51.014;6.678;2023-06-14T06:09:26;7.75;;;4.28;;
9880;SDS011;4979;51.014;6.678;2023-06-14T06:11:52;7.10;;;3.42;;
9880;SDS011;4979;51.014;6.678;2023-06-14T06:14:18;6.75;;;4.10;;
9880;SDS011;4979;51.014;6.678;2023-06-14T06:16:43;6.90;;;4.82;;
9880;SDS011;4979;51.014;6.678;2023-06-14T06:19:09;9.98;;;4.00;;
9880;SDS011;4979;51.014;6.678;2023-06-14T06:21:35;5.80;;;4.05;;
9880;SDS011;4979;51.014;6.678;2023-06-14T06:24:00;17.05;;;3.85;;
9880;SDS011;4979;51.014;6.678;2023-06-14T06:26:28;7.30;;;4.10;;
9880;SDS011;4979;51.014;6.678;2023-06-14T06:28:54;5.32;;;3.40;;
9880;SDS011;4979;51.014;6.678;2023-06-14T06:31:20;3.88;;;3.47;;
9880;SDS011;4979;51.014;6.678;2023-06-14T06:33:47;7.00;;;3.70;;
9880;SDS011;4979;51.014;6.678;2023-06-14T06:36:13;5.55;;;3.92;;
9880;SDS011;4979;51.014;6.678;2023-06-14T06:38:38;5.30;;;3.80;;
9880;SDS011;4979;51.014;6.678;2023-06-14T06:41:04;4.38;;;3.75;;
9880;SDS011;4979;51.014;6.678;2023-06-14T06:43:29;5.50;;;4.05;;
9880;SDS011;4979;51.014;6.678;2023-06-14T06:45:55;3.95;;;3.55;;
9880;SDS011;4979;51.014;6.678;2023-06-14T06:48:20;11.13;;;4.30;;
9880;SDS011;4979;51.014;6.678;2023-06-14T06:50:46;4.13;;;3.72;;
9880;SDS011;4979;51.014;6.678;2023-06-14T06:53:11;7.00;;;3.42;;
9880;SDS011;4979;51.014;6.678;2023-06-14T06:55:37;5.20;;;3.70;;
9880;SDS011;4979;51.014;6.678;2023-06-14T06:58:02;4.75;;;3.38;;
9880;SDS011;4979;51.014;6.678;2023-06-14T07:00:30;4.25;;;3.75;;
9880;SDS011;4979;51.014;6.678;2023-06-14T07:02:55;5.70;;;3.28;;
9880;SDS011;4979;51.014;6.678;2023-06-14T07:05:22;7.72;;;3.42;;
9880;SDS011;4979;51.014;6.678;2023-06-14T07:07:48;4.72;;;3.03;;
9880;SDS011;4979;51.014;6.678;2023-06-14T07:10:13;6.88;;;3.58;;
9880;SDS011;4979;51.014;6.678;2023-06-14T07:12:39;5.05;;;3.47;;
9880;SDS011;4979;51.014;6.678;2023-06-14T07:15:08;6.03;;;2.88;;
9880;SDS011;4979;51.014;6.678;2023-06-14T07:17:34;4.63;;;2.97;;
9880;SDS011;4979;51.014;6.678;2023-06-14T07:19:59;3.30;;;2.60;;
9880;SDS011;4979;51.014;6.678;2023-06-14T07:22:30;7.57;;;3.17;;
9880;SDS011;4979;51.014;6.678;2023-06-14T07:24:55;3.38;;;2.95;;
9880;SDS011;4979;51.014;6.678;2023-06-14T07:27:21;6.60;;;3.17;;
9880;SDS011;4979;51.014;6.678;2023-06-14T07:29:46;5.20;;;3.40;;
9880;SDS011;4979;51.014;6.678;2023-06-14T07:32:12;4.82;;;3.10;;
9880;SDS011;4979;51.014;6.678;2023-06-14T07:34:37;3.20;;;2.75;;
9880;SDS011;4979;51.014;6.678;2023-06-14T07:37:03;6.97;;;3.10;;
9880;SDS011;4979;51.014;6.678;2023-06-14T07:39:29;4.65;;;3.30;;
9880;SDS011;4979;51.014;6.678;2023-06-14T07:41:55;4.50;;;2.80;;
9880;SDS011;4979;51.014;6.678;2023-06-14T07:44:20;3.33;;;3.03;;
9880;SDS011;4979;51.014;6.678;2023-06-14T07:46:46;6.22;;;2.80;;
9880;SDS011;4979;51.014;6.678;2023-06-14T07:49:14;7.90;;;3.38;;
9880;SDS011;4979;51.014;6.678;2023-06-14T07:51:39;5.38;;;3.20;;
9880;SDS011;4979;51.014;6.678;2023-06-14T07:54:05;2.83;;;2.50;;
9880;SDS011;4979;51.014;6.678;2023-06-14T07:56:32;7.85;;;3.00;;
9880;SDS011;4979;51.014;6.678;2023-06-14T07:58:58;4.25;;;3.10;;
9880;SDS011;4979;51.014;6.678;2023-06-14T08:01:24;3.38;;;2.55;;
9880;SDS011;4979;51.014;6.678;2023-06-14T08:03:50;3.72;;;2.45;;
9880;SDS011;4979;51.014;6.678;2023-06-14T08:06:16;3.50;;;2.50;;
9880;SDS011;4979;51.014;6.678;2023-06-14T08:08:41;8.57;;;2.83;;
9880;SDS011;4979;51.014;6.678;2023-06-14T08:11:07;4.72;;;2.20;;
9880;SDS011;4979;51.014;6.678;2023-06-14T08:13:32;3.70;;;2.25;;
9880;SDS011;4979;51.014;6.678;2023-06-14T08:15:58;5.70;;;2.33;;
9880;SDS011;4979;51.014;6.678;2023-06-14T08:18:25;5.38;;;2.78;;
9880;SDS011;4979;51.014;6.678;2023-06-14T08:20:51;3.72;;;2.28;;
9880;SDS011;4979;51.014;6.678;2023-06-14T08:23:17;4.07;;;2.47;;
9880;SDS011;4979;51.014;6.678;2023-06-14T08:25:44;3.13;;;2.10;;
9880;SDS011;4979;51.014;6.678;2023-06-14T08:28:10;2.20;;;2.00;;
9880;SDS011;4979;51.014;6.678;2023-06-14T08:30:35;3.05;;;1.90;;
9880;SDS011;4979;51.014;6.678;2023-06-14T08:33:01;1.80;;;1.70;;
9880;SDS011;4979;51.014;6.678;2023-06-14T08:35:27;5.38;;;2.00;;
9880;SDS011;4979;51.014;6.678;2023-06-14T08:37:53;5.15;;;2.10;;
9880;SDS011;4979;51.014;6.678;2023-06-14T08:42:47;2.10;;;1.88;;
9880;SDS011;4979;51.014;6.678;2023-06-14T08:45:16;1.77;;;1.67;;
9880;SDS011;4979;51.014;6.678;2023-06-14T08:47:42;2.10;;;1.90;;
9880;SDS011;4979;51.014;6.678;2023-06-14T08:50:08;2.55;;;1.77;;
9880;SDS011;4979;51.014;6.678;2023-06-14T08:52:35;3.05;;;1.88;;
9880;SDS011;4979;51.014;6.678;2023-06-14T08:55:06;2.50;;;1.75;;
9880;SDS011;4979;51.014;6.678;2023-06-14T08:57:33;4.05;;;2.10;;
9880;SDS011;4979;51.014;6.678;2023-06-14T09:00:02;6.22;;;1.92;;
9880;SDS011;4979;51.014;6.678;2023-06-14T09:02:38;2.30;;;2.00;;
9880;SDS011;4979;51.014;6.678;2023-06-14T09:05:08;4.88;;;2.13;;
9880;SDS011;4979;51.014;6.678;2023-06-14T09:07:38;2.33;;;1.90;;
9880;SDS011;4979;51.014;6.678;2023-06-14T09:10:06;2.67;;;2.38;;
9880;SDS011;4979;51.014;6.678;2023-06-14T09:12:35;3.25;;;2.05;;
9880;SDS011;4979;51.014;6.678;2023-06-14T09:15:01;2.83;;;1.55;;
9880;SDS011;4979;51.014;6.678;2023-06-14T09:17:32;2.97;;;2.33;;
9880;SDS011;4979;51.014;6.678;2023-06-14T09:19:59;3.25;;;2.05;;
9880;SDS011;4979;51.014;6.678;2023-06-14T09:22:24;4.30;;;2.38;;
9880;SDS011;4979;51.014;6.678;2023-06-14T09:24:50;2.42;;;2.22;;
9880;SDS011;4979;51.014;6.678;2023-06-14T09:27:16;3.25;;;2.00;;
9880;SDS011;4979;51.014;6.678;2023-06-14T09:29:41;2.20;;;1.98;;
9880;SDS011;4979;51.014;6.678;2023-06-14T09:32:07;2.15;;;1.60;;
9880;SDS011;4979;51.014;6.678;2023-06-14T09:34:34;3.45;;;2.47;;
9880;SDS011;4979;51.014;6.678;2023-06-14T09:37:00;4.50;;;2.33;;
9880;SDS011;4979;51.014;6.678;2023-06-14T09:39:25;4.60;;;2.30;;
9880;SDS011;4979;51.014;6.678;2023-06-14T09:41:52;3.58;;;2.45;;
9880;SDS011;4979;51.014;6.678;2023-06-14T09:44:18;2.65;;;2.33;;
9880;SDS011;4979;51.014;6.678;2023-06-14T09:46:45;6.10;;;2.25;;
9880;SDS011;4979;51.014;6.678;2023-06-14T09:49:11;4.18;;;2.17;;
9880;SDS011;4979;51.014;6.678;2023-06-14T09:51:42;6.28;;;2.33;;
9880;SDS011;4979;51.014;6.678;2023-06-14T09:54:08;4.82;;;2.55;;
9880;SDS011;4979;51.014;6.678;2023-06-14T09:56:41;4.00;;;2.25;;
9880;SDS011;4979;51.014;6.678;2023-06-14T09:59:09;2.63;;;2.03;;
9880;SDS011;4979;51.014;6.678;2023-06-14T10:01:41;4.43;;;2.10;;
9880;SDS011;4979;51.014;6.678;2023-06-14T10:04:07;2.58;;;1.80;;
9880;SDS011;4979;51.014;6.678;2023-06-14T10:06:43;5.68;;;2.13;;
9880;SDS011;4979;51.014;6.678;2023-06-14T10:09:13;3.13;;;1.90;;
9880;SDS011;4979;51.014;6.678;2023-06-14T10:11:39;4.32;;;2.13;;
9880;SDS011;4979;51.014;6.678;2023-06-14T10:14:08;3.08;;;2.00;;
9880;SDS011;4979;51.014;6.678;2023-06-14T10:16:52;1.80;;;1.70;;
9880;SDS011;4979;51.014;6.678;2023-06-14T10:19:34;4.70;;;2.15;;
9880;SDS011;4979;51.014;6.678;2023-06-14T10:24:38;2.15;;;1.92;;
9880;SDS011;4979;51.014;6.678;2023-06-14T10:27:07;2.70;;;2.10;;
9880;SDS011;4979;51.014;6.678;2023-06-14T10:32:21;4.28;;;2.10;;
9880;SDS011;4979;51.014;6.678;2023-06-14T10:34:59;2.47;;;1.83;;
9880;SDS011;4979;51.014;6.678;2023-06-14T10:37:26;3.28;;;1.80;;
9880;SDS011;4979;51.014;6.678;2023-06-14T10:39:52;2.10;;;1.90;;
9880;SDS011;4979;51.014;6.678;2023-06-14T10:42:18;3.55;;;1.85;;
9880;SDS011;4979;51.014;6.678;2023-06-14T10:44:54;1.90;;;1.52;;
9880;SDS011;4979;51.014;6.678;2023-06-14T10:47:33;1.80;;;1.70;;
9880;SDS011;4979;51.014;6.678;2023-06-14T10:52:42;3.53;;;2.10;;
9880;SDS011;4979;51.014;6.678;2023-06-14T10:55:15;3.33;;;1.90;;
9880;SDS011;4979;51.014;6.678;2023-06-14T10:57:53;6.22;;;2.00;;
9880;SDS011;4979;51.014;6.678;2023-06-14T11:00:23;2.53;;;2.00;;
9880;SDS011;4979;51.014;6.678;2023-06-14T11:05:56;3.95;;;2.25;;
9880;SDS011;4979;51.014;6.678;2023-06-14T11:11:29;2.55;;;2.05;;
9880;SDS011;4979;51.014;6.678;2023-06-14T11:14:00;3.75;;;2.03;;
9880;SDS011;4979;51.014;6.678;2023-06-14T11:16:26;5.38;;;2.38;;
9880;SDS011;4979;51.014;6.678;2023-06-14T11:18:58;3.60;;;2.28;;
9880;SDS011;4979;51.014;6.678;2023-06-14T11:21:26;3.60;;;2.53;;
9880;SDS011;4979;51.014;6.678;2023-06-14T11:23:56;3.28;;;2.17;;
9880;SDS011;4979;51.014;6.678;2023-06-14T11:26:27;4.72;;;2.13;;
9880;SDS011;4979;51.014;6.678;2023-06-14T11:29:00;4.70;;;2.00;;
9880;SDS011;4979;51.014;6.678;2023-06-14T11:31:29;3.72;;;2.00;;
9880;SDS011;4979;51.014;6.678;2023-06-14T11:33:55;6.63;;;2.20;;
9880;SDS011;4979;51.014;6.678;2023-06-14T11:36:22;2.88;;;2.20;;
9880;SDS011;4979;51.014;6.678;2023-06-14T11:38:57;3.03;;;2.08;;
9880;SDS011;4979;51.014;6.678;2023-06-14T11:41:24;18.25;;;5.93;;
9880;SDS011;4979;51.014;6.678;2023-06-14T11:43:52;4.10;;;2.28;;
9880;SDS011;4979;51.014;6.678;2023-06-14T11:46:18;8.65;;;2.75;;
9880;SDS011;4979;51.014;6.678;2023-06-14T11:48:48;9.20;;;2.28;;
9880;SDS011;4979;51.014;6.678;2023-06-14T11:51:14;5.82;;;2.42;;
9880;SDS011;4979;51.014;6.678;2023-06-14T11:53:40;2.53;;;2.17;;
9880;SDS011;4979;51.014;6.678;2023-06-14T11:56:07;4.05;;;2.30;;
9880;SDS011;4979;51.014;6.678;2023-06-14T11:58:33;4.95;;;2.65;;
9880;SDS011;4979;51.014;6.678;2023-06-14T12:00:59;5.43;;;2.28;;
9880;SDS011;4979;51.014;6.678;2023-06-14T12:03:25;2.75;;;2.38;;
9880;SDS011;4979;51.014;6.678;2023-06-14T12:06:01;3.35;;;2.30;;
9880;SDS011;4979;51.014;6.678;2023-06-14T12:08:37;8.38;;;2.30;;
9880;SDS011;4979;51.014;6.678;2023-06-14T12:11:05;6.55;;;2.40;;
9880;SDS011;4979;51.014;6.678;2023-06-14T12:13:41;2.75;;;2.30;;
9880;SDS011;4979;51.014;6.678;2023-06-14T12:16:08;3.80;;;2.20;;
9880;SDS011;4979;51.014;6.678;2023-06-14T12:18:38;3.58;;;2.70;;
9880;SDS011;4979;51.014;6.678;2023-06-14T12:21:08;3.55;;;2.63;;
9880;SDS011;4979;51.014;6.678;2023-06-14T12:23:44;4.80;;;3.13;;
9880;SDS011;4979;51.014;6.678;2023-06-14T12:26:14;3.25;;;2.35;;
9880;SDS011;4979;51.014;6.678;2023-06-14T12:28:41;3.70;;;2.50;;
9880;SDS011;4979;51.014;6.678;2023-06-14T12:31:11;3.42;;;2.25;;
9880;SDS011;4979;51.014;6.678;2023-06-14T12:33:38;2.58;;;1.92;;
9880;SDS011;4979;51.014;6.678;2023-06-14T12:36:06;4.72;;;1.80;;
9880;SDS011;4979;51.014;6.678;2023-06-14T12:38:33;2.08;;;1.95;;
9880;SDS011;4979;51.014;6.678;2023-06-14T12:40:59;2.13;;;1.95;;
9880;SDS011;4979;51.014;6.678;2023-06-14T12:43:25;3.92;;;2.30;;
9880;SDS011;4979;51.014;6.678;2023-06-14T12:45:51;2.67;;;2.35;;
9880;SDS011;4979;51.014;6.678;2023-06-14T12:48:16;4.45;;;2.83;;
9880;SDS011;4979;51.014;6.678;2023-06-14T12:50:42;2.88;;;2.50;;
9880;SDS011;4979;51.014;6.678;2023-06-14T12:53:08;2.15;;;1.83;;
9880;SDS011;4979;51.014;6.678;2023-06-14T12:55:33;2.45;;;1.85;;
9880;SDS011;4979;51.014;6.678;2023-06-14T12:57:59;2.63;;;2.20;;
9880;SDS011;4979;51.014;6.678;2023-06-14T13:00:24;6.28;;;3.00;;
9880;SDS011;4979;51.014;6.678;2023-06-14T13:02:54;2.30;;;2.13;;
9880;SDS011;4979;51.014;6.678;2023-06-14T13:05:20;2.55;;;2.00;;
9880;SDS011;4979;51.014;6.678;2023-06-14T13:07:46;2.22;;;2.03;;
9880;SDS011;4979;51.014;6.678;2023-06-14T13:10:12;7.22;;;4.03;;
9880;SDS011;4979;51.014;6.678;2023-06-14T13:12:37;7.00;;;3.45;;
9880;SDS011;4979;51.014;6.678;2023-06-14T13:15:03;2.28;;;1.77;;
9880;SDS011;4979;51.014;6.678;2023-06-14T13:17:29;3.67;;;2.47;;
9880;SDS011;4979;51.014;6.678;2023-06-14T13:19:54;8.48;;;2.80;;
9880;SDS011;4979;51.014;6.678;2023-06-14T13:22:20;2.92;;;1.70;;
9880;SDS011;4979;51.014;6.678;2023-06-14T13:24:45;2.75;;;2.10;;
9880;SDS011;4979;51.014;6.678;2023-06-14T13:27:11;3.55;;;1.88;;
9880;SDS011;4979;51.014;6.678;2023-06-14T13:29:39;1.63;;;1.52;;
9880;SDS011;4979;51.014;6.678;2023-06-14T13:32:05;5.32;;;1.90;;
9880;SDS011;4979;51.014;6.678;2023-06-14T13:34:31;3.05;;;1.80;;
9880;SDS011;4979;51.014;6.678;2023-06-14T13:36:56;3.15;;;1.80;;
9880;SDS011;4979;51.014;6.678;2023-06-14T13:39:23;2.95;;;1.60;;
9880;SDS011;4979;51.014;6.678;2023-06-14T13:41:50;6.97;;;2.85;;
9880;SDS011;4979;51.014;6.678;2023-06-14T13:44:15;3.00;;;2.17;;
9880;SDS011;4979;51.014;6.678;2023-06-14T13:46:43;4.68;;;2.20;;
9880;SDS011;4979;51.014;6.678;2023-06-14T13:49:09;2.08;;;1.58;;
9880;SDS011;4979;51.014;6.678;2023-06-14T13:51:35;6.75;;;2.00;;
9880;SDS011;4979;51.014;6.678;2023-06-14T13:54:00;5.07;;;2.60;;
9880;SDS011;4979;51.014;6.678;2023-06-14T13:56:26;2.92;;;1.52;;
9880;SDS011;4979;51.014;6.678;2023-06-14T13:58:52;2.75;;;1.45;;
9880;SDS011;4979;51.014;6.678;2023-06-14T14:01:17;8.13;;;3.95;;
9880;SDS011;4979;51.014;6.678;2023-06-14T14:03:45;2.83;;;1.90;;
9880;SDS011;4979;51.014;6.678;2023-06-14T14:06:11;3.30;;;1.52;;
9880;SDS011;4979;51.014;6.678;2023-06-14T14:08:37;4.47;;;1.90;;
9880;SDS011;4979;51.014;6.678;2023-06-14T14:11:02;5.30;;;3.35;;
9880;SDS011;4979;51.014;6.678;2023-06-14T14:13:29;5.68;;;2.40;;
9880;SDS011;4979;51.014;6.678;2023-06-14T14:15:54;1.70;;;1.60;;
9880;SDS011;4979;51.014;6.678;2023-06-14T14:18:20;2.10;;;1.90;;
9880;SDS011;4979;51.014;6.678;2023-06-14T14:20:46;2.30;;;2.10;;
9880;SDS011;4979;51.014;6.678;2023-06-14T14:23:12;4.60;;;3.03;;
9880;SDS011;4979;51.014;6.678;2023-06-14T14:25:37;5.65;;;2.58;;
9880;SDS011;4979;51.014;6.678;2023-06-14T14:28:03;5.38;;;3.58;;
9880;SDS011;4979;51.014;6.678;2023-06-14T14:30:28;3.58;;;2.15;;
9880;SDS011;4979;51.014;6.678;2023-06-14T14:32:54;13.10;;;7.97;;
9880;SDS011;4979;51.014;6.678;2023-06-14T14:35:20;3.47;;;1.80;;
9880;SDS011;4979;51.014;6.678;2023-06-14T14:37:47;24.73;;;12.15;;
9880;SDS011;4979;51.014;6.678;2023-06-14T14:40:13;8.30;;;4.00;;
9880;SDS011;4979;51.014;6.678;2023-06-14T14:42:39;7.43;;;2.95;;
9880;SDS011;4979;51.014;6.678;2023-06-14T14:45:04;3.35;;;2.65;;
9880;SDS011;4979;51.014;6.678;2023-06-14T14:47:30;6.03;;;2.50;;
9880;SDS011;4979;51.014;6.678;2023-06-14T14:49:56;10.80;;;4.95;;
9880;SDS011;4979;51.014;6.678;2023-06-14T14:52:21;12.57;;;4.47;;
9880;SDS011;4979;51.014;6.678;2023-06-14T14:54:47;16.00;;;5.18;;
9880;SDS011;4979;51.014;6.678;2023-06-14T14:57:13;5.43;;;2.42;;
9880;SDS011;4979;51.014;6.678;2023-06-14T14:59:38;16.60;;;5.10;;
9880;SDS011;4979;51.014;6.678;2023-06-14T15:02:04;4.07;;;2.25;;
9880;SDS011;4979;51.014;6.678;2023-06-14T15:04:30;2.95;;;1.70;;
9880;SDS011;4979;51.014;6.678;2023-06-14T15:06:56;16.05;;;6.05;;
9880;SDS011;4979;51.014;6.678;2023-06-14T15:09:22;4.80;;;2.40;;
9880;SDS011;4979;51.014;6.678;2023-06-14T15:11:47;3.85;;;2.50;;
9880;SDS011;4979;51.014;6.678;2023-06-14T15:14:13;4.10;;;2.60;;
9880;SDS011;4979;51.014;6.678;2023-06-14T15:16:39;2.50;;;1.88;;
9880;SDS011;4979;51.014;6.678;2023-06-14T15:19:05;5.53;;;3.38;;
9880;SDS011;4979;51.014;6.678;2023-06-14T15:21:30;5.78;;;3.10;;
9880;SDS011;4979;51.014;6.678;2023-06-14T15:23:56;8.50;;;4.40;;
9880;SDS011;4979;51.014;6.678;2023-06-14T15:26:22;7.70;;;2.50;;
9880;SDS011;4979;51.014;6.678;2023-06-14T15:28:49;2.70;;;2.20;;
9880;SDS011;4979;51.014;6.678;2023-06-14T15:31:15;4.13;;;2.45;;
9880;SDS011;4979;51.014;6.678;2023-06-14T15:33:41;8.93;;;4.20;;